This is the latest recevied weather packets stored in our database for station/object TG9ADI-20. If no packets are shown the sender has not sent any weather packets the latest 10 day(s).
| Time | Temp. | Humidity | Pressure | Rain* | Wind** | Luminosity | Snow |
|---|---|---|---|---|---|---|---|
| 1778167076 | 22.78° C | 75% | 1014 hPa | 0 mm | - | - | - |
| 1778166476 | 23.89° C | 64% | 1014 hPa | 0 mm | - | - | - |
| 1778165875 | 21.67° C | 78% | 1014 hPa | 0 mm | - | - | - |
| 1778165274 | 21.67° C | 78% | 1014 hPa | 0 mm | - | - | - |
| 1778164674 | 21.67° C | 88% | 1014 hPa | 0 mm | - | - | - |
| 1778164073 | 21.11° C | 85% | 1015 hPa | 0 mm | - | - | - |
| 1778163473 | 21.11° C | 85% | 1015 hPa | 0 mm | - | - | - |
| 1778162872 | 21.67° C | 78% | 1015 hPa | 0 mm | - | - | - |
| 1778162271 | 19.44° C | 88% | 1015 hPa | 0 mm | - | - | - |
| 1778161670 | 19.44° C | 88% | 1015 hPa | 0 mm | - | - | - |
| 1778161070 | 20° C | 93% | 1015 hPa | 0 mm | - | - | - |
| 1778160469 | 20° C | 93% | 1015 hPa | 0 mm | - | - | - |
| 1778159869 | 18.89° C | 93% | 1015 hPa | 0 mm | - | - | - |
| 1778159268 | 19.44° C | 93% | 1015 hPa | 0 mm | - | - | - |
| 1778158667 | 18.33° C | 10% | - | 0 mm | - | - | - |
| 1778158067 | 18.33° C | 10% | - | 0 mm | - | - | - |
| 1778157466 | 18.33° C | 10% | - | 0 mm | - | - | - |
| 1778156865 | 17.22° C | 99% | 1014 hPa | 0 mm | - | - | - |
| 1778156265 | 17.22° C | 99% | 1014 hPa | 0 mm | - | - | - |
| 1778155664 | 17.22° C | 99% | 1014 hPa | 0 mm | - | - | - |
| 1778155063 | 18.33° C | 97% | 1014 hPa | 0 mm | - | - | - |
| 1778154462 | 17.78° C | 96% | 1014 hPa | 0 mm | - | - | - |
| 1778153862 | 17.78° C | 96% | 1014 hPa | 0 mm | - | - | - |
| 1778153261 | 17.78° C | 96% | 1014 hPa | 0 mm | - | - | - |
| 1778152661 | 18.33° C | 97% | 1014 hPa | 0 mm | - | - | - |
* Rain latest hour (hover to see other rain measurements)
** Current wind speed in m/s (hover to see current wind gust speed)